Time;durP1;ratioP1;P1;durP2;ratioP2;P2;SDS_P1;SDS_P2;PMS_P1;PMS_P2;Temp;Humidity;BMP_temperature;BMP_pressure;BME280_temperature;BME280_humidity;BME280_pressure;Samples;Min_cycle;Max_cycle;Signal;HPM_P1;HPM_P2
2022/10/06 00:02:19;;;;;;;5.03;3.10;;;12.40;99.90;;;;;;4965033;28;20641;-88
2022/10/06 00:04:46;;;;;;;4.37;3.60;;;12.10;99.90;;;;;;4961765;28;21280;-87
2022/10/06 00:07:14;;;;;;;4.47;4.03;;;12.20;99.90;;;;;;4965800;28;20628;-88
2022/10/06 00:09:40;;;;;;;3.67;3.37;;;12.20;99.90;;;;;;4945330;28;21001;-88
2022/10/06 00:12:08;;;;;;;5.27;3.50;;;12.50;99.90;;;;;;4949894;28;20634;-87
2022/10/06 00:14:35;;;;;;;3.20;2.90;;;12.30;99.90;;;;;;4943067;28;21246;-88
2022/10/06 00:17:02;;;;;;;3.40;3.20;;;12.20;99.90;;;;;;4949393;28;20641;-88
2022/10/06 00:19:30;;;;;;;4.87;3.20;;;12.40;99.90;;;;;;4948102;28;21218;-88
2022/10/06 00:21:57;;;;;;;3.70;3.40;;;12.50;99.90;;;;;;4946121;28;20631;-88
2022/10/06 00:24:24;;;;;;;4.13;3.83;;;12.10;99.90;;;;;;4949013;28;20698;-87
2022/10/06 00:26:50;;;;;;;5.10;3.70;;;12.40;99.90;;;;;;4948940;28;20639;-88
2022/10/06 00:29:17;;;;;;;3.80;3.50;;;12.50;99.90;;;;;;4942937;28;20631;-89
2022/10/06 00:31:44;;;;;;;4.20;3.80;;;12.40;99.90;;;;;;4940982;28;21210;-87
2022/10/06 00:34:11;;;;;;;6.87;3.87;;;12.40;99.90;;;;;;4947386;28;20634;-87
2022/10/06 00:36:39;;;;;;;4.53;3.23;;;12.30;99.90;;;;;;4946505;28;20642;-87
2022/10/06 00:39:06;;;;;;;3.37;3.07;;;12.20;99.90;;;;;;4940352;28;20997;-88
2022/10/06 00:41:33;;;;;;;5.13;3.27;;;12.00;99.90;;;;;;4948887;28;20630;-88
2022/10/06 00:44:00;;;;;;;3.67;3.37;;;12.20;99.90;;;;;;4946191;28;20645;-88
2022/10/06 00:46:38;;;;;;;3.80;3.47;;;12.40;99.90;;;;;;4948122;28;20631;-88
2022/10/06 00:49:10;;;;;;;5.40;3.03;;;12.40;99.90;;;;;;4945549;28;20610;-87
2022/10/06 00:51:42;;;;;;;3.60;3.40;;;12.40;99.90;;;;;;4943249;28;20630;-88
2022/10/06 00:54:09;;;;;;;4.07;3.67;;;12.00;99.90;;;;;;4942479;28;20632;-88
2022/10/06 00:56:38;;;;;;;4.60;3.60;;;12.40;99.90;;;;;;4946196;28;20646;-87
2022/10/06 00:59:05;;;;;;;3.43;3.23;;;12.40;99.90;;;;;;4946769;28;20634;-88
2022/10/06 01:01:34;;;;;;;3.87;3.07;;;12.10;99.90;;;;;;4944595;28;20638;-87
2022/10/06 01:04:06;;;;;;;4.90;3.77;;;12.30;99.90;;;;;;4943092;28;20627;-89
2022/10/06 01:06:44;;;;;;;4.43;4.00;;;12.30;99.90;;;;;;4945138;28;20629;-88
2022/10/06 01:09:11;;;;;;;4.30;3.33;;;11.80;99.90;;;;;;4942536;28;20642;-87
2022/10/06 01:11:38;;;;;;;4.50;3.30;;;12.20;99.90;;;;;;4947081;28;20642;-87
2022/10/06 01:14:05;;;;;;;3.37;3.17;;;12.20;99.90;;;;;;4944939;28;20637;-89
2022/10/06 01:16:36;;;;;;;3.10;2.90;;;12.10;99.90;;;;;;4947338;28;21035;-90
2022/10/06 01:19:06;;;;;;;4.47;3.50;;;12.10;99.90;;;;;;4947013;28;20634;-87
2022/10/06 01:21:38;;;;;;;4.83;3.43;;;11.80;99.90;;;;;;4940416;28;20630;-89
2022/10/06 01:24:06;;;;;;;5.43;3.73;;;12.00;99.90;;;;;;4945319;28;20638;-88
2022/10/06 01:26:39;;;;;;;3.60;2.83;;;12.00;99.90;;;;;;4947273;28;20631;-88
2022/10/06 01:29:07;;;;;;;3.60;3.10;;;11.50;99.90;;;;;;4939795;28;20626;-89
2022/10/06 01:31:35;;;;;;;4.07;2.83;;;11.70;99.90;;;;;;4945881;28;20631;-89
2022/10/06 01:34:01;;;;;;;3.10;2.83;;;11.60;99.90;;;;;;4945932;28;20634;-89
2022/10/06 01:36:28;;;;;;;3.80;3.50;;;11.70;99.90;;;;;;4941972;28;20638;-88
2022/10/06 01:38:55;;;;;;;7.53;3.40;;;12.00;99.90;;;;;;4947244;28;20629;-89
2022/10/06 01:41:25;;;;;;;3.47;3.17;;;11.60;99.90;;;;;;4949158;28;20677;-89
2022/10/06 01:43:52;;;;;;;3.40;3.10;;;11.70;99.90;;;;;;4947289;28;20611;-89
2022/10/06 01:46:20;;;;;;;3.10;2.90;;;11.70;99.90;;;;;;4946557;28;20678;-89
2022/10/06 01:48:46;;;;;;;5.13;3.43;;;11.90;99.90;;;;;;4946250;28;20630;-89
2022/10/06 01:51:14;;;;;;;7.03;3.33;;;11.90;99.90;;;;;;4940646;28;20638;-88
2022/10/06 01:53:41;;;;;;;3.83;3.10;;;11.80;99.90;;;;;;4947515;28;20634;-89
2022/10/06 01:56:08;;;;;;;3.33;2.97;;;11.90;99.90;;;;;;4944549;28;20676;-88
2022/10/06 01:58:36;;;;;;;7.67;3.40;;;11.50;99.90;;;;;;4943694;28;20649;-88
2022/10/06 02:01:05;;;;;;;3.80;3.27;;;11.90;99.90;;;;;;4945294;28;20638;-88
2022/10/06 02:03:34;;;;;;;4.27;3.87;;;11.70;99.90;;;;;;4940158;28;20726;-87
2022/10/06 02:06:01;;;;;;;3.40;3.10;;;12.00;99.90;;;;;;4941485;28;21293;-87
2022/10/06 02:08:28;;;;;;;4.00;3.37;;;11.60;99.90;;;;;;4947802;28;20668;-87
2022/10/06 02:10:54;;;;;;;2.57;2.37;;;11.60;99.90;;;;;;4948178;28;21222;-87
2022/10/06 02:13:24;;;;;;;3.80;3.00;;;11.60;99.90;;;;;;4938979;28;20765;-87
2022/10/06 02:15:56;;;;;;;3.30;2.97;;;12.20;99.90;;;;;;4945385;28;21063;-88
2022/10/06 02:18:22;;;;;;;3.20;2.80;;;11.90;99.90;;;;;;4945779;28;20614;-88
2022/10/06 02:20:49;;;;;;;3.60;2.80;;;11.80;99.90;;;;;;4944129;28;20627;-89
2022/10/06 02:23:16;;;;;;;3.87;2.70;;;11.50;99.90;;;;;;4951225;28;20645;-89
2022/10/06 02:25:43;;;;;;;5.60;2.90;;;11.50;99.90;;;;;;4955364;28;20686;-88
2022/10/06 02:28:10;;;;;;;5.33;3.20;;;11.80;99.90;;;;;;4948794;28;21065;-89
2022/10/06 02:30:37;;;;;;;6.20;3.40;;;11.60;99.90;;;;;;4946559;28;20630;-88
2022/10/06 02:33:06;;;;;;;3.80;3.40;;;11.40;99.90;;;;;;4951322;28;20614;-88
2022/10/06 02:35:33;;;;;;;5.17;3.97;;;11.50;99.90;;;;;;4948810;28;20646;-88
2022/10/06 02:37:59;;;;;;;4.07;3.03;;;11.30;99.90;;;;;;4948511;28;20633;-89
2022/10/06 02:40:26;;;;;;;3.60;3.30;;;11.40;99.90;;;;;;4950626;28;20976;-88
2022/10/06 02:42:53;;;;;;;8.73;3.60;;;11.80;99.90;;;;;;4952050;28;20626;-88
2022/10/06 02:45:20;;;;;;;4.10;3.50;;;11.40;99.90;;;;;;4948201;28;20686;-89
2022/10/06 02:47:47;;;;;;;4.83;3.37;;;11.30;99.90;;;;;;4949295;28;20638;-88
2022/10/06 02:50:15;;;;;;;2.93;2.73;;;11.80;99.90;;;;;;4949577;28;20633;-87
2022/10/06 02:52:41;;;;;;;4.10;3.00;;;11.70;99.90;;;;;;4951391;28;20628;-87
2022/10/06 02:55:09;;;;;;;7.50;3.50;;;11.50;99.90;;;;;;4950361;28;21026;-88
2022/10/06 02:57:36;;;;;;;3.20;3.00;;;11.90;99.90;;;;;;4951083;28;20603;-88
2022/10/06 03:00:06;;;;;;;3.93;3.30;;;11.60;99.90;;;;;;4949112;28;20622;-88
2022/10/06 03:02:33;;;;;;;3.90;3.40;;;11.70;99.90;;;;;;4950213;28;21171;-87
2022/10/06 03:04:59;;;;;;;4.47;4.10;;;11.50;99.90;;;;;;4948945;28;21257;-87
2022/10/06 03:07:28;;;;;;;5.30;4.67;;;11.20;99.90;;;;;;4948546;28;20705;-87
2022/10/06 03:09:55;;;;;;;4.57;3.27;;;11.20;99.90;;;;;;4949673;28;20622;-87
2022/10/06 03:12:22;;;;;;;5.90;3.97;;;11.30;99.90;;;;;;4950724;28;20654;-88
2022/10/06 03:14:49;;;;;;;3.70;3.40;;;11.30;99.90;;;;;;4948901;28;20658;-87
2022/10/06 03:17:16;;;;;;;4.43;3.53;;;11.20;99.90;;;;;;4949941;28;20633;-88
2022/10/06 03:19:42;;;;;;;4.57;4.00;;;11.20;99.90;;;;;;4950998;28;20656;-89
2022/10/06 03:22:10;;;;;;;4.20;3.80;;;11.40;99.90;;;;;;4948263;28;20641;-87
2022/10/06 03:24:38;;;;;;;3.93;3.63;;;10.90;99.90;;;;;;4949251;28;21062;-88
2022/10/06 03:27:05;;;;;;;4.47;3.90;;;11.30;99.90;;;;;;4951433;28;21519;-88
2022/10/06 03:29:32;;;;;;;5.17;3.60;;;11.20;99.90;;;;;;4948708;28;20630;-88
2022/10/06 03:31:59;;;;;;;3.57;3.10;;;11.30;99.90;;;;;;4946038;28;20730;-88
2022/10/06 03:34:26;;;;;;;4.00;3.50;;;11.00;99.90;;;;;;4949633;28;20654;-88
2022/10/06 03:36:53;;;;;;;5.47;4.23;;;11.00;99.90;;;;;;4949862;28;20718;-88
2022/10/06 03:39:20;;;;;;;4.30;3.90;;;11.40;99.90;;;;;;4949529;28;20586;-88
2022/10/06 03:41:48;;;;;;;4.10;3.70;;;11.00;99.90;;;;;;4950504;28;20698;-89
2022/10/06 03:44:15;;;;;;;3.70;3.30;;;11.40;99.90;;;;;;4949051;28;20625;-88
2022/10/06 03:46:42;;;;;;;4.80;3.43;;;11.50;99.90;;;;;;4950003;28;20676;-88
2022/10/06 03:49:09;;;;;;;4.40;4.00;;;11.30;99.90;;;;;;4948866;28;20685;-88
2022/10/06 03:51:38;;;;;;;4.73;3.60;;;11.30;99.90;;;;;;4948637;28;20634;-88
2022/10/06 03:54:11;;;;;;;8.73;3.50;;;11.30;99.90;;;;;;4948971;28;20646;-88
2022/10/06 03:56:39;;;;;;;4.77;3.20;;;12.00;99.90;;;;;;4950063;28;20990;-88
2022/10/06 03:59:10;;;;;;;3.90;3.50;;;11.60;99.90;;;;;;4949644;28;20652;-88
2022/10/06 04:01:38;;;;;;;3.17;2.87;;;12.00;99.90;;;;;;4950652;28;21099;-88
2022/10/06 04:04:06;;;;;;;4.43;3.50;;;12.20;99.90;;;;;;4949777;28;20630;-89
2022/10/06 04:06:35;;;;;;;4.63;3.47;;;11.80;99.90;;;;;;4946509;28;20765;-89
2022/10/06 04:09:03;;;;;;;4.13;3.73;;;12.40;99.90;;;;;;4950421;28;20654;-89
2022/10/06 04:11:32;;;;;;;5.83;3.70;;;12.00;99.90;;;;;;4948979;28;20619;-88
2022/10/06 04:14:01;;;;;;;4.03;3.17;;;12.40;99.90;;;;;;4949447;28;20643;-88
2022/10/06 04:16:30;;;;;;;3.90;3.30;;;12.50;99.90;;;;;;4948772;28;20634;-89
2022/10/06 04:18:59;;;;;;;3.33;2.97;;;12.30;99.90;;;;;;4945597;28;20658;-88
2022/10/06 04:21:30;;;;;;;3.50;3.30;;;12.60;99.90;;;;;;4947997;28;20626;-88
2022/10/06 04:23:57;;;;;;;3.50;3.17;;;12.70;99.90;;;;;;4950856;28;20627;-88
2022/10/06 04:26:26;;;;;;;3.50;3.07;;;12.80;99.90;;;;;;4949081;28;21261;-88
2022/10/06 04:28:53;;;;;;;3.60;2.67;;;12.50;99.90;;;;;;4947772;28;20700;-88
2022/10/06 04:31:22;;;;;;;3.83;3.43;;;12.90;99.90;;;;;;4948069;28;21007;-88
2022/10/06 04:33:53;;;;;;;4.10;3.70;;;12.60;99.90;;;;;;4949116;28;20681;-88
2022/10/06 04:36:23;;;;;;;6.20;4.30;;;12.70;99.90;;;;;;4955225;28;20615;-89
2022/10/06 04:38:52;;;;;;;5.17;4.77;;;13.00;99.90;;;;;;4949959;28;20650;-88
2022/10/06 04:41:20;;;;;;;4.83;3.97;;;12.60;99.90;;;;;;4951872;28;20950;-88
2022/10/06 04:43:48;;;;;;;4.83;4.10;;;12.70;99.90;;;;;;4947572;28;20649;-88
2022/10/06 04:46:16;;;;;;;4.53;4.13;;;12.20;99.90;;;;;;4949277;28;20753;-89
2022/10/06 04:48:43;;;;;;;6.53;4.00;;;12.60;99.90;;;;;;4945798;28;20689;-88
2022/10/06 04:51:13;;;;;;;6.97;4.03;;;12.20;99.90;;;;;;4944701;28;20632;-89
2022/10/06 04:53:42;;;;;;;5.00;4.60;;;12.40;99.90;;;;;;4951404;28;20675;-89
2022/10/06 04:56:12;;;;;;;5.93;4.43;;;12.30;99.90;;;;;;4944866;28;20630;-88
2022/10/06 04:58:40;;;;;;;5.90;5.20;;;12.20;99.90;;;;;;4948071;28;20746;-88
2022/10/06 05:01:13;;;;;;;5.70;4.77;;;11.90;99.90;;;;;;4944352;28;20650;-88
2022/10/06 05:03:40;;;;;;;5.60;4.77;;;11.90;99.90;;;;;;4950473;28;20633;-88
2022/10/06 05:06:08;;;;;;;7.67;4.93;;;12.00;99.90;;;;;;4946529;28;20666;-89
2022/10/06 05:08:37;;;;;;;5.03;4.63;;;12.40;99.90;;;;;;4950052;28;20661;-89
2022/10/06 05:11:06;;;;;;;6.13;4.70;;;11.90;99.90;;;;;;4948679;28;20635;-88
2022/10/06 05:13:35;;;;;;;6.43;5.03;;;12.30;99.90;;;;;;4949516;28;21198;-89
2022/10/06 05:16:03;;;;;;;4.47;4.03;;;12.30;99.90;;;;;;4947814;28;20654;-89
2022/10/06 05:18:31;;;;;;;4.83;4.37;;;12.30;99.90;;;;;;4948240;28;20689;-88
2022/10/06 05:20:58;;;;;;;5.23;4.73;;;12.50;99.90;;;;;;4943841;28;20635;-88
2022/10/06 05:23:26;;;;;;;4.70;4.30;;;12.20;99.90;;;;;;4950148;28;20618;-89
2022/10/06 05:25:56;;;;;;;6.43;4.40;;;12.20;99.90;;;;;;4940655;28;21223;-89
2022/10/06 05:28:24;;;;;;;4.37;4.07;;;12.20;99.90;;;;;;4940950;28;20745;-88
2022/10/06 05:30:59;;;;;;;6.90;4.73;;;12.60;99.90;;;;;;4949614;28;20619;-89
2022/10/06 05:33:27;;;;;;;5.17;4.70;;;12.30;99.90;;;;;;4947977;28;20626;-89
2022/10/06 05:35:56;;;;;;;3.97;3.60;;;12.60;99.90;;;;;;4950160;28;20627;-89
2022/10/06 05:38:23;;;;;;;5.20;4.70;;;12.40;99.90;;;;;;4950927;28;20656;-88
2022/10/06 05:40:50;;;;;;;5.43;4.30;;;12.30;99.90;;;;;;4950628;28;20626;-90
2022/10/06 05:43:18;;;;;;;7.83;4.50;;;12.50;99.90;;;;;;4951168;28;20630;-89
2022/10/06 05:46:04;;;;;;;6.60;6.10;;;12.80;99.90;;;;;;4944964;28;20663;-87
2022/10/06 05:48:31;;;;;;;14.10;12.97;;;12.40;99.90;;;;;;4942993;28;20666;-87
2022/10/06 05:50:59;;;;;;;18.63;17.03;;;12.70;99.90;;;;;;4949024;28;20630;-88
2022/10/06 05:53:27;;;;;;;13.93;12.83;;;12.90;99.90;;;;;;4948062;28;20673;-89
2022/10/06 05:56:03;;;;;;;9.80;8.93;;;12.60;99.90;;;;;;4947654;28;20607;-89
2022/10/06 05:58:32;;;;;;;8.43;7.20;;;12.50;99.90;;;;;;4949444;28;20661;-89
2022/10/06 06:01:06;;;;;;;12.73;5.30;;;13.00;99.90;;;;;;4951416;28;21316;-89
2022/10/06 06:03:33;;;;;;;5.83;5.17;;;13.10;99.90;;;;;;4951043;28;20620;-90
2022/10/06 06:06:00;;;;;;;4.90;4.40;;;13.10;99.90;;;;;;4946249;28;20678;-89
2022/10/06 06:08:27;;;;;;;7.80;4.67;;;13.10;99.90;;;;;;4949962;28;20669;-89
2022/10/06 06:10:54;;;;;;;5.03;4.40;;;13.10;99.90;;;;;;4954041;28;20739;-88
2022/10/06 06:13:21;;;;;;;9.10;5.87;;;13.20;99.90;;;;;;4947903;28;20622;-89
2022/10/06 06:16:03;;;;;;;9.83;6.83;;;13.20;99.90;;;;;;4942914;28;21223;-89
2022/10/06 06:18:30;;;;;;;6.40;5.37;;;13.20;99.90;;;;;;4949793;28;20693;-89
2022/10/06 06:20:57;;;;;;;6.33;5.60;;;13.10;99.90;;;;;;4951182;28;20709;-89
2022/10/06 06:23:32;;;;;;;7.63;4.80;;;12.80;99.90;;;;;;4949939;28;20647;-88
2022/10/06 06:26:00;;;;;;;8.50;5.20;;;13.00;99.90;;;;;;4950230;28;20740;-89
2022/10/06 06:28:28;;;;;;;7.73;5.70;;;12.40;99.90;;;;;;4953414;28;20858;-88
2022/10/06 06:31:05;;;;;;;7.30;5.83;;;12.50;99.90;;;;;;4946713;28;20630;-89
2022/10/06 06:33:33;;;;;;;7.27;5.40;;;12.40;99.90;;;;;;4950665;28;20635;-89
2022/10/06 06:36:02;;;;;;;6.40;5.90;;;12.70;99.90;;;;;;4947339;28;20768;-89
2022/10/06 06:38:29;;;;;;;6.80;6.10;;;12.60;99.90;;;;;;4953223;28;21062;-90
2022/10/06 06:40:57;;;;;;;8.37;5.90;;;12.60;99.90;;;;;;4949855;28;20666;-89
2022/10/06 06:43:23;;;;;;;5.60;5.10;;;12.30;99.90;;;;;;4954292;28;20637;-90
2022/10/06 06:45:50;;;;;;;6.63;5.40;;;12.70;99.90;;;;;;4949328;28;20634;-89
2022/10/06 06:48:18;;;;;;;5.10;4.60;;;12.70;99.90;;;;;;4948870;28;20657;-89
2022/10/06 06:50:45;;;;;;;5.77;5.27;;;12.60;99.90;;;;;;4948591;28;20633;-89
2022/10/06 06:53:14;;;;;;;6.40;4.90;;;12.60;99.90;;;;;;4951865;28;20630;-89
2022/10/06 06:55:50;;;;;;;6.37;4.53;;;13.10;99.90;;;;;;4943770;28;20702;-88
2022/10/06 06:58:18;;;;;;;6.70;4.63;;;12.90;99.90;;;;;;4948623;28;20658;-89
2022/10/06 07:00:45;;;;;;;5.00;4.50;;;13.30;99.90;;;;;;4951148;28;21128;-87
2022/10/06 07:03:13;;;;;;;6.10;3.90;;;13.50;99.90;;;;;;4951234;28;20640;-87
2022/10/06 07:05:45;;;;;;;17.03;14.20;;;13.10;99.90;;;;;;4948378;28;20645;-88
2022/10/06 07:08:13;;;;;;;4.87;4.47;;;13.50;99.90;;;;;;4947593;28;20782;-86
2022/10/06 07:10:41;;;;;;;5.20;4.80;;;13.60;99.90;;;;;;4945432;28;20642;-86
2022/10/06 07:13:08;;;;;;;6.10;4.23;;;13.70;99.90;;;;;;4948078;28;20669;-89
2022/10/06 07:26:37;;;;;;;6.07;4.40;;;14.30;99.90;;;;;;4949248;28;20665;-88
2022/10/06 07:29:04;;;;;;;5.20;4.70;;;14.30;99.90;;;;;;4950495;28;20658;-88
2022/10/06 07:31:33;;;;;;;5.23;4.80;;;14.40;99.90;;;;;;4947916;28;20764;-87
2022/10/06 07:34:01;;;;;;;5.13;4.70;;;14.40;99.90;;;;;;4959723;28;20626;-87
2022/10/06 07:36:29;;;;;;;7.73;4.57;;;14.50;99.90;;;;;;4949922;28;20622;-87
2022/10/06 07:38:57;;;;;;;9.27;4.20;;;14.70;99.90;;;;;;4952165;28;20653;-87
2022/10/06 07:41:24;;;;;;;8.40;4.07;;;14.80;99.90;;;;;;4952170;28;20641;-90
2022/10/06 07:43:52;;;;;;;9.00;4.47;;;14.60;99.90;;;;;;4948551;28;20646;-88
2022/10/06 07:46:19;;;;;;;25.87;6.40;;;14.60;99.90;;;;;;4946080;28;21289;-88
2022/10/06 07:48:47;;;;;;;12.93;7.13;;;14.70;99.90;;;;;;4945949;28;20655;-88
2022/10/06 07:51:17;;;;;;;5.40;4.90;;;14.80;99.90;;;;;;4943512;28;20643;-89
2022/10/06 07:53:49;;;;;;;4.37;3.97;;;15.00;99.90;;;;;;4948303;28;20642;-88
2022/10/06 07:56:19;;;;;;;6.77;4.60;;;15.10;99.90;;;;;;4949305;28;20630;-89
2022/10/06 07:58:46;;;;;;;5.77;5.17;;;15.20;99.90;;;;;;4961781;28;21171;-88
2022/10/06 08:01:15;;;;;;;5.73;5.13;;;15.20;99.90;;;;;;4953693;28;20635;-89
2022/10/06 08:03:43;;;;;;;10.30;9.10;;;15.30;99.90;;;;;;4947116;28;20760;-88
2022/10/06 08:06:13;;;;;;;8.30;7.60;;;15.40;99.90;;;;;;4947715;28;20622;-87
2022/10/06 08:08:41;;;;;;;13.00;8.67;;;15.50;99.90;;;;;;4944018;28;21541;-89
2022/10/06 08:11:10;;;;;;;6.43;4.90;;;15.50;99.90;;;;;;4949122;28;20625;-88
2022/10/06 08:13:39;;;;;;;6.10;4.03;;;15.60;99.90;;;;;;4946581;28;20630;-90
2022/10/06 08:16:08;;;;;;;7.57;4.40;;;15.50;99.90;;;;;;4948372;28;20635;-88
2022/10/06 08:18:35;;;;;;;5.30;4.80;;;15.40;99.90;;;;;;4947737;28;20658;-88
2022/10/06 08:21:09;;;;;;;5.00;4.30;;;15.50;99.90;;;;;;4946689;28;20639;-88
2022/10/06 08:23:39;;;;;;;8.30;4.57;;;15.40;99.90;;;;;;4946697;28;20618;-88
2022/10/06 08:26:06;;;;;;;11.43;5.27;;;15.50;99.90;;;;;;4947349;28;20721;-88
2022/10/06 08:28:35;;;;;;;8.40;5.57;;;15.40;99.90;;;;;;4938517;28;20650;-89
2022/10/06 08:31:04;;;;;;;6.80;5.43;;;15.10;99.90;;;;;;4945694;28;20638;-89
2022/10/06 08:33:37;;;;;;;9.40;5.37;;;15.20;99.90;;;;;;4945947;28;20627;-88
2022/10/06 08:36:04;;;;;;;13.00;5.50;;;15.50;99.90;;;;;;4947497;28;20623;-89
2022/10/06 08:38:32;;;;;;;6.80;5.80;;;15.60;99.90;;;;;;4942341;28;20660;-89
2022/10/06 08:41:00;;;;;;;5.50;4.20;;;15.70;99.90;;;;;;4948344;28;20657;-89
2022/10/06 08:43:28;;;;;;;6.00;3.00;;;15.90;99.90;;;;;;4940210;28;20693;-91
2022/10/06 08:46:01;;;;;;;3.43;2.17;;;16.50;99.90;;;;;;4946778;28;20630;-90
2022/10/06 08:48:37;;;;;;;6.00;3.03;;;16.80;99.90;;;;;;4946138;28;20682;-91
2022/10/06 08:51:17;;;;;;;3.70;2.90;;;16.90;99.90;;;;;;4942844;28;20637;-90
2022/10/06 08:53:56;;;;;;;6.60;3.03;;;17.10;99.90;;;;;;4945779;28;21024;-88
2022/10/06 08:56:26;;;;;;;3.53;2.97;;;17.10;99.90;;;;;;4944980;28;20642;-89
2022/10/06 08:58:56;;;;;;;6.20;2.60;;;17.30;99.90;;;;;;4948505;28;20661;-88
2022/10/06 09:01:26;;;;;;;7.17;2.80;;;17.50;99.90;;;;;;4949038;28;20635;-88
2022/10/06 09:03:55;;;;;;;4.50;2.43;;;17.60;99.90;;;;;;4943710;28;20673;-89
2022/10/06 09:06:43;;;;;;;5.60;2.60;;;17.70;99.90;;;;;;4948650;28;21005;-89
2022/10/06 09:09:25;;;;;;;4.30;2.60;;;17.60;99.90;;;;;;4945466;28;20672;-89
2022/10/06 09:12:01;;;;;;;3.43;1.90;;;17.70;99.90;;;;;;4947122;28;20626;-89
2022/10/06 09:14:35;;;;;;;3.53;2.30;;;17.80;99.90;;;;;;4944436;28;20714;-90
2022/10/06 09:17:09;;;;;;;5.00;2.53;;;17.50;99.90;;;;;;4949152;28;20669;-90
2022/10/06 09:19:43;;;;;;;4.07;1.97;;;17.70;99.90;;;;;;4948191;28;20662;-89
2022/10/06 09:22:18;;;;;;;5.50;2.17;;;17.60;99.90;;;;;;4944266;28;20626;-89
2022/10/06 09:24:49;;;;;;;12.20;2.20;;;17.70;99.90;;;;;;4948093;28;20627;-89
2022/10/06 09:27:19;;;;;;;3.50;2.20;;;17.90;99.90;;;;;;4948281;28;20666;-90
2022/10/06 09:29:48;;;;;;;4.00;1.73;;;18.10;99.90;;;;;;4951266;28;21848;-89
2022/10/06 09:32:18;;;;;;;5.43;1.90;;;18.00;99.90;;;;;;4948304;28;20748;-91
2022/10/06 09:34:50;;;;;;;3.30;2.00;;;18.10;99.90;;;;;;4944901;28;20642;-90
2022/10/06 09:37:17;;;;;;;3.47;1.70;;;18.50;99.90;;;;;;4942650;28;20639;-89
2022/10/06 09:39:47;;;;;;;2.40;1.23;;;18.60;99.90;;;;;;4943765;28;20658;-89
2022/10/06 09:42:19;;;;;;;5.20;1.70;;;18.80;99.90;;;;;;4946217;28;20629;-89
2022/10/06 09:45:00;;;;;;;1.87;1.40;;;19.00;99.90;;;;;;4948604;28;20635;-89
2022/10/06 09:50:28;;;;;;;5.77;2.00;;;19.50;99.90;;;;;;5104888;27;20705;-89
2022/10/06 09:53:20;;;;;;;3.00;1.23;;;19.40;99.90;;;;;;5102868;28;20779;-89
2022/10/06 09:55:55;;;;;;;2.77;1.70;;;19.50;99.90;;;;;;5087702;28;20628;-89
2022/10/06 09:58:28;;;;;;;4.00;2.00;;;20.70;99.90;;;;;;5102681;28;21184;-90
2022/10/06 10:00:58;;;;;;;4.47;1.97;;;20.90;99.90;;;;;;5104467;28;20637;-88
2022/10/06 10:03:31;;;;;;;2.60;1.50;;;20.30;99.90;;;;;;5110279;28;20743;-89
2022/10/06 10:06:01;;;;;;;3.97;1.33;;;20.50;99.90;;;;;;5119685;28;20623;-89
2022/10/06 10:08:29;;;;;;;5.47;1.20;;;21.00;99.90;;;;;;5107892;28;20679;-90
2022/10/06 10:14:02;;;;;;;5.40;1.50;;;21.80;99.90;;;;;;5108233;28;20614;-89
2022/10/06 10:16:33;;;;;;;2.87;1.47;;;21.20;99.90;;;;;;5116275;28;20627;-90
2022/10/06 10:19:01;;;;;;;4.37;2.10;;;20.40;99.90;;;;;;5109502;28;20743;-89
2022/10/06 10:21:33;;;;;;;4.33;2.07;;;20.40;99.90;;;;;;5111303;28;20644;-90
2022/10/06 10:24:04;;;;;;;5.30;1.50;;;20.40;99.90;;;;;;5105500;28;21204;-89
2022/10/06 10:26:44;;;;;;;5.23;1.67;;;20.30;99.90;;;;;;5116966;28;20668;-89
2022/10/06 10:29:38;;;;;;;5.27;1.97;;;20.60;99.90;;;;;;5106321;28;20789;-89
2022/10/06 10:32:14;;;;;;;2.53;1.10;;;20.70;99.90;;;;;;5102491;28;20723;-89
2022/10/06 10:35:00;;;;;;;1.60;1.47;;;20.30;99.90;;;;;;5103987;28;20623;-89
2022/10/06 10:37:35;;;;;;;4.33;2.03;;;20.10;99.90;;;;;;5103544;28;20698;-89
2022/10/06 10:40:11;;;;;;;5.30;2.37;;;20.40;99.90;;;;;;5099493;28;20636;-89
2022/10/06 10:42:46;;;;;;;4.80;1.23;;;20.20;99.90;;;;;;5115202;28;20758;-90
2022/10/06 10:45:17;;;;;;;4.63;1.80;;;19.80;99.90;;;;;;5105075;28;20615;-89
2022/10/06 10:47:46;;;;;;;2.20;1.20;;;20.90;99.90;;;;;;5109112;28;20714;-89
2022/10/06 10:50:23;;;;;;;3.50;1.70;;;22.50;99.90;;;;;;5112004;28;21265;-90
2022/10/06 10:52:56;;;;;;;8.87;1.90;;;23.90;96.10;;;;;;5104680;28;20655;-89
2022/10/06 10:55:29;;;;;;;4.00;1.60;;;24.20;94.90;;;;;;5103529;28;20638;-90
2022/10/06 10:57:59;;;;;;;6.40;1.60;;;23.30;95.10;;;;;;5096245;28;20616;-90
2022/10/06 11:00:30;;;;;;;3.17;1.50;;;22.40;97.80;;;;;;5097844;28;20640;-90
2022/10/06 11:02:58;;;;;;;3.50;1.50;;;21.90;99.70;;;;;;5092533;28;20623;-90
2022/10/06 11:05:46;;;;;;;2.93;1.20;;;21.20;99.90;;;;;;5094485;28;20738;-90
2022/10/06 11:08:21;;;;;;;5.03;1.67;;;22.00;99.70;;;;;;5082086;28;20624;-91
2022/10/06 11:10:53;;;;;;;1.97;1.50;;;23.80;92.90;;;;;;5091967;28;20704;-90
2022/10/06 11:13:27;;;;;;;2.23;1.10;;;25.60;80.10;;;;;;5091572;28;20632;-90
2022/10/06 11:16:08;;;;;;;3.10;1.23;;;26.90;68.80;;;;;;5087368;28;20641;-91
2022/10/06 11:18:49;;;;;;;3.17;1.40;;;27.50;63.30;;;;;;5089044;28;21045;-92
2022/10/06 11:21:21;;;;;;;4.03;0.90;;;27.40;60.90;;;;;;5110665;28;20599;-92
2022/10/06 11:23:57;;;;;;;2.40;1.23;;;27.40;59.60;;;;;;5096409;28;20623;-91
2022/10/06 11:26:43;;;;;;;3.53;1.30;;;27.60;59.60;;;;;;5090526;28;20616;-89
2022/10/06 11:29:25;;;;;;;3.10;1.53;;;26.80;62.70;;;;;;5089753;28;20675;-90
2022/10/06 11:32:01;;;;;;;6.03;1.83;;;27.70;59.50;;;;;;5092168;28;20631;-90
2022/10/06 11:34:28;;;;;;;3.07;1.50;;;28.20;60.40;;;;;;5095504;28;20627;-91
2022/10/06 11:37:02;;;;;;;4.23;1.57;;;29.30;57.90;;;;;;5091474;28;20624;-91
2022/10/06 11:39:37;;;;;;;3.67;1.50;;;30.00;55.40;;;;;;5087482;28;20681;-91
2022/10/06 11:42:14;;;;;;;2.87;1.50;;;31.10;53.90;;;;;;5087162;28;20624;-90
2022/10/06 11:44:44;;;;;;;5.93;1.97;;;30.70;51.10;;;;;;5085472;28;20628;-90
2022/10/06 11:47:18;;;;;;;3.70;1.60;;;29.10;52.60;;;;;;5084600;28;20970;-90
2022/10/06 11:49:50;;;;;;;2.83;1.80;;;29.00;53.10;;;;;;5090981;28;20663;-91
2022/10/06 11:52:47;;;;;;;3.17;1.50;;;28.80;55.60;;;;;;5091371;28;21060;-92
2022/10/06 11:55:22;;;;;;;5.50;1.67;;;30.20;53.60;;;;;;5092307;28;20648;-92
2022/10/06 11:58:23;;;;;;;4.43;1.87;;;30.40;52.90;;;;;;5090779;28;20296;-91
2022/10/06 12:00:50;;;;;;;3.13;1.33;;;28.50;54.30;;;;;;5083951;28;20734;-91
2022/10/06 12:03:47;;;;;;;3.67;1.60;;;27.80;57.20;;;;;;5086454;28;20991;-92
2022/10/06 12:06:52;;;;;;;3.40;1.23;;;29.30;55.10;;;;;;5087039;28;20622;-92
2022/10/06 12:09:46;;;;;;;4.27;1.50;;;29.30;54.40;;;;;;5094641;28;20659;-93
2022/10/06 12:12:47;;;;;;;4.47;1.87;;;26.30;57.10;;;;;;5094361;28;20689;-92
2022/10/06 12:15:41;;;;;;;4.97;1.50;;;23.90;66.80;;;;;;5093002;28;20727;-91
2022/10/06 12:18:26;;;;;;;3.50;1.40;;;22.90;73.10;;;;;;5090442;28;20650;-91
2022/10/06 12:21:05;;;;;;;1.90;1.77;;;22.70;77.10;;;;;;5094394;28;20639;-92
2022/10/06 12:23:46;;;;;;;3.60;1.30;;;22.40;83.10;;;;;;5095050;28;21072;-90
2022/10/06 12:26:40;;;;;;;9.63;1.40;;;22.10;86.30;;;;;;5086162;28;21224;-90
2022/10/06 12:29:40;;;;;;;3.77;1.30;;;22.10;86.00;;;;;;5090466;28;21155;-90
2022/10/06 12:32:22;;;;;;;3.97;1.23;;;22.00;88.10;;;;;;5082026;28;20743;-90
2022/10/06 12:34:57;;;;;;;3.10;1.17;;;22.20;90.90;;;;;;5085521;28;20624;-90
2022/10/06 12:37:41;;;;;;;3.30;1.10;;;21.90;88.80;;;;;;5089098;28;20627;-90
2022/10/06 12:41:00;;;;;;;2.40;1.13;;;21.60;90.70;;;;;;5090440;28;20675;-90
2022/10/06 12:43:47;;;;;;;3.70;1.97;;;21.50;92.00;;;;;;5088789;28;20627;-90
2022/10/06 12:46:23;;;;;;;2.73;1.10;;;21.40;92.00;;;;;;5096114;28;20627;-89
2022/10/06 12:49:00;;;;;;;3.43;1.10;;;21.00;94.30;;;;;;5083970;28;20659;-89
2022/10/06 12:51:32;;;;;;;3.93;1.53;;;20.70;96.30;;;;;;5091403;28;20624;-91
2022/10/06 12:54:07;;;;;;;7.97;1.20;;;21.00;95.80;;;;;;5094414;28;20639;-91
2022/10/06 12:56:37;;;;;;;3.23;1.17;;;21.60;94.70;;;;;;5086660;28;20652;-91
2022/10/06 12:59:22;;;;;;;8.37;1.80;;;21.90;94.00;;;;;;5077803;28;20660;-90
2022/10/06 13:01:52;;;;;;;2.47;1.27;;;22.20;91.70;;;;;;5074788;28;20620;-90
2022/10/06 13:04:34;;;;;;;4.07;1.37;;;21.70;93.50;;;;;;5078957;28;21174;-90
2022/10/06 13:07:08;;;;;;;7.67;1.90;;;21.80;93.60;;;;;;5081494;28;20723;-90
2022/10/06 13:09:35;;;;;;;4.00;1.80;;;21.80;94.00;;;;;;5086619;28;20783;-90
2022/10/06 13:12:24;;;;;;;3.77;1.60;;;21.80;94.80;;;;;;5081284;28;20651;-90
2022/10/06 13:15:08;;;;;;;2.53;1.30;;;21.90;94.00;;;;;;5084688;28;20611;-90
2022/10/06 13:17:42;;;;;;;6.93;1.70;;;22.10;93.70;;;;;;5085252;28;20623;-89
2022/10/06 13:20:33;;;;;;;4.83;1.07;;;21.80;93.80;;;;;;5082170;28;20778;-93
2022/10/06 13:23:01;;;;;;;4.40;1.57;;;21.90;95.70;;;;;;5086332;28;21222;-89
2022/10/06 13:25:34;;;;;;;2.97;1.60;;;21.60;96.40;;;;;;5082798;28;20677;-90